sensor_id;sensor_type;location;lat;lon;timestamp;P1;durP1;ratioP1;P2;durP2;ratioP2
50858;SDS011;36826;47.514;19.056;2023-05-07T20:08:36;4.47;;;2.35;;
50858;SDS011;36826;47.514;19.056;2023-05-07T20:11:01;5.00;;;2.25;;
50858;SDS011;36826;47.514;19.056;2023-05-07T20:13:27;3.13;;;2.08;;
50858;SDS011;36826;47.514;19.056;2023-05-07T20:15:59;2.47;;;2.03;;
50858;SDS011;36826;47.514;19.056;2023-05-07T20:18:26;3.25;;;1.95;;
50858;SDS011;36826;47.514;19.056;2023-05-07T20:20:52;3.08;;;2.10;;
50858;SDS011;36826;47.514;19.056;2023-05-07T20:23:18;3.15;;;1.75;;
50858;SDS011;36826;47.514;19.056;2023-05-07T20:25:45;3.22;;;1.90;;
50858;SDS011;36826;47.514;19.056;2023-05-07T20:28:11;3.70;;;2.10;;
50858;SDS011;36826;47.514;19.056;2023-05-07T20:30:36;2.33;;;1.75;;
50858;SDS011;36826;47.514;19.056;2023-05-07T20:33:02;3.15;;;1.80;;
50858;SDS011;36826;47.514;19.056;2023-05-07T20:35:31;3.10;;;1.88;;
50858;SDS011;36826;47.514;19.056;2023-05-07T20:37:57;2.95;;;2.38;;
50858;SDS011;36826;47.514;19.056;2023-05-07T20:40:23;2.70;;;1.73;;
50858;SDS011;36826;47.514;19.056;2023-05-07T20:42:48;2.95;;;1.80;;
50858;SDS011;36826;47.514;19.056;2023-05-07T20:45:15;3.28;;;1.90;;
50858;SDS011;36826;47.514;19.056;2023-05-07T20:47:41;3.08;;;2.10;;
50858;SDS011;36826;47.514;19.056;2023-05-07T20:50:06;2.95;;;1.95;;
50858;SDS011;36826;47.514;19.056;2023-05-07T20:52:32;2.50;;;1.95;;
50858;SDS011;36826;47.514;19.056;2023-05-07T20:54:57;2.50;;;1.77;;
50858;SDS011;36826;47.514;19.056;2023-05-07T20:57:23;2.72;;;1.70;;
50858;SDS011;36826;47.514;19.056;2023-05-07T20:59:49;3.33;;;2.00;;
50858;SDS011;36826;47.514;19.056;2023-05-07T21:02:15;3.25;;;2.15;;
50858;SDS011;36826;47.514;19.056;2023-05-07T21:04:40;3.20;;;2.20;;
50858;SDS011;36826;47.514;19.056;2023-05-07T21:07:06;3.65;;;2.10;;
50858;SDS011;36826;47.514;19.056;2023-05-07T21:09:32;2.83;;;1.90;;
50858;SDS011;36826;47.514;19.056;2023-05-07T21:11:57;3.33;;;2.17;;
50858;SDS011;36826;47.514;19.056;2023-05-07T21:14:23;2.90;;;2.10;;
50858;SDS011;36826;47.514;19.056;2023-05-07T21:16:49;3.50;;;1.92;;
50858;SDS011;36826;47.514;19.056;2023-05-07T21:19:14;5.05;;;2.40;;
50858;SDS011;36826;47.514;19.056;2023-05-07T21:21:40;3.63;;;2.17;;
50858;SDS011;36826;47.514;19.056;2023-05-07T21:24:06;3.17;;;2.10;;
50858;SDS011;36826;47.514;19.056;2023-05-07T21:26:32;2.95;;;2.10;;
50858;SDS011;36826;47.514;19.056;2023-05-07T21:28:57;2.80;;;2.17;;
50858;SDS011;36826;47.514;19.056;2023-05-07T21:31:23;3.92;;;2.10;;
50858;SDS011;36826;47.514;19.056;2023-05-07T21:33:48;3.20;;;2.17;;
50858;SDS011;36826;47.514;19.056;2023-05-07T21:36:17;3.17;;;1.90;;
50858;SDS011;36826;47.514;19.056;2023-05-07T21:38:42;5.78;;;2.30;;
50858;SDS011;36826;47.514;19.056;2023-05-07T21:41:09;4.85;;;2.28;;
50858;SDS011;36826;47.514;19.056;2023-05-07T21:43:35;2.83;;;2.20;;
50858;SDS011;36826;47.514;19.056;2023-05-07T21:46:05;4.20;;;2.13;;
50858;SDS011;36826;47.514;19.056;2023-05-07T21:48:33;3.75;;;2.40;;
50858;SDS011;36826;47.514;19.056;2023-05-07T21:51:02;3.28;;;2.33;;
50858;SDS011;36826;47.514;19.056;2023-05-07T21:53:29;3.38;;;2.20;;
50858;SDS011;36826;47.514;19.056;2023-05-07T21:55:55;4.15;;;2.38;;
50858;SDS011;36826;47.514;19.056;2023-05-07T21:58:24;5.38;;;2.30;;
50858;SDS011;36826;47.514;19.056;2023-05-07T22:00:50;2.72;;;2.20;;
50858;SDS011;36826;47.514;19.056;2023-05-07T22:03:15;4.45;;;2.30;;
50858;SDS011;36826;47.514;19.056;2023-05-07T22:05:41;5.53;;;2.58;;
50858;SDS011;36826;47.514;19.056;2023-05-07T22:08:06;5.45;;;3.38;;
50858;SDS011;36826;47.514;19.056;2023-05-07T22:10:32;4.32;;;2.60;;
50858;SDS011;36826;47.514;19.056;2023-05-07T22:12:57;4.35;;;2.58;;
50858;SDS011;36826;47.514;19.056;2023-05-07T22:15:23;5.25;;;2.67;;
50858;SDS011;36826;47.514;19.056;2023-05-07T22:17:48;4.20;;;2.45;;
50858;SDS011;36826;47.514;19.056;2023-05-07T22:20:14;3.88;;;2.72;;
50858;SDS011;36826;47.514;19.056;2023-05-07T22:22:46;3.70;;;2.60;;
50858;SDS011;36826;47.514;19.056;2023-05-07T22:25:15;4.63;;;2.65;;
50858;SDS011;36826;47.514;19.056;2023-05-07T22:27:41;3.08;;;2.67;;
50858;SDS011;36826;47.514;19.056;2023-05-07T22:30:07;3.20;;;2.63;;
50858;SDS011;36826;47.514;19.056;2023-05-07T22:32:33;5.65;;;2.80;;
50858;SDS011;36826;47.514;19.056;2023-05-07T22:34:58;4.97;;;3.30;;
50858;SDS011;36826;47.514;19.056;2023-05-07T22:37:24;3.25;;;2.60;;
50858;SDS011;36826;47.514;19.056;2023-05-07T22:39:49;3.85;;;2.72;;
50858;SDS011;36826;47.514;19.056;2023-05-07T22:42:15;3.95;;;2.80;;
50858;SDS011;36826;47.514;19.056;2023-05-07T22:44:41;2.88;;;2.58;;
50858;SDS011;36826;47.514;19.056;2023-05-07T22:47:06;3.78;;;2.88;;
50858;SDS011;36826;47.514;19.056;2023-05-07T22:49:34;3.80;;;2.83;;
50858;SDS011;36826;47.514;19.056;2023-05-07T22:52:00;4.80;;;2.60;;
50858;SDS011;36826;47.514;19.056;2023-05-07T22:54:26;5.60;;;2.80;;
50858;SDS011;36826;47.514;19.056;2023-05-07T22:56:51;3.50;;;2.85;;
50858;SDS011;36826;47.514;19.056;2023-05-07T22:59:18;3.40;;;2.50;;
50858;SDS011;36826;47.514;19.056;2023-05-07T23:01:44;4.38;;;2.60;;
50858;SDS011;36826;47.514;19.056;2023-05-07T23:04:10;3.10;;;2.80;;
50858;SDS011;36826;47.514;19.056;2023-05-07T23:06:36;5.70;;;2.67;;
50858;SDS011;36826;47.514;19.056;2023-05-07T23:09:01;3.85;;;2.50;;
50858;SDS011;36826;47.514;19.056;2023-05-07T23:11:28;3.95;;;2.92;;
50858;SDS011;36826;47.514;19.056;2023-05-07T23:13:53;5.55;;;2.63;;
50858;SDS011;36826;47.514;19.056;2023-05-07T23:16:19;3.85;;;2.85;;
50858;SDS011;36826;47.514;19.056;2023-05-07T23:18:44;3.78;;;2.92;;
50858;SDS011;36826;47.514;19.056;2023-05-07T23:21:09;4.60;;;3.08;;
50858;SDS011;36826;47.514;19.056;2023-05-07T23:23:35;3.40;;;2.75;;
50858;SDS011;36826;47.514;19.056;2023-05-07T23:26:01;4.10;;;2.90;;
50858;SDS011;36826;47.514;19.056;2023-05-07T23:28:26;3.78;;;2.90;;
50858;SDS011;36826;47.514;19.056;2023-05-07T23:30:52;3.95;;;3.00;;
50858;SDS011;36826;47.514;19.056;2023-05-07T23:33:17;3.85;;;2.88;;
50858;SDS011;36826;47.514;19.056;2023-05-07T23:35:43;4.63;;;3.03;;
50858;SDS011;36826;47.514;19.056;2023-05-07T23:38:09;5.57;;;3.20;;
50858;SDS011;36826;47.514;19.056;2023-05-07T23:40:34;4.35;;;2.90;;
50858;SDS011;36826;47.514;19.056;2023-05-07T23:43:00;3.88;;;3.10;;
50858;SDS011;36826;47.514;19.056;2023-05-07T23:45:25;4.13;;;2.83;;
50858;SDS011;36826;47.514;19.056;2023-05-07T23:47:51;3.53;;;2.70;;
50858;SDS011;36826;47.514;19.056;2023-05-07T23:50:16;3.67;;;2.83;;
50858;SDS011;36826;47.514;19.056;2023-05-07T23:52:42;4.38;;;2.90;;
50858;SDS011;36826;47.514;19.056;2023-05-07T23:55:07;3.53;;;2.95;;
50858;SDS011;36826;47.514;19.056;2023-05-07T23:57:33;3.58;;;3.00;;
50858;SDS011;36826;47.514;19.056;2023-05-07T23:59:58;3.70;;;3.20;;
